createdAt,value
2019-05-20T00:03:16.813Z,100030.30
2019-05-20T00:08:22.258Z,100037.81
2019-05-20T00:13:27.722Z,100037.36
2019-05-20T00:18:33.252Z,100034.92
2019-05-20T00:23:38.778Z,100036.87
2019-05-20T00:28:44.277Z,100032.20
2019-05-20T00:33:49.774Z,100022.33
2019-05-20T00:39:14.117Z,100024.45
2019-05-20T00:44:19.822Z,100020.73
2019-05-20T00:49:25.306Z,100025.25
2019-05-20T00:54:31.024Z,100033.20
2019-05-20T00:59:36.568Z,100034.39
2019-05-20T01:04:42.117Z,100043.05
2019-05-20T01:09:47.531Z,100039.81
2019-05-20T01:14:53.106Z,100050.73
2019-05-20T01:19:58.565Z,100050.16
2019-05-20T01:25:04.118Z,100057.17
2019-05-20T01:30:09.852Z,100052.48
2019-05-20T01:35:15.280Z,100059.92
2019-05-20T01:40:20.818Z,100049.67
2019-05-20T01:45:26.246Z,100057.09
2019-05-20T01:50:31.756Z,100062.78
2019-05-20T01:55:37.165Z,100053.41
2019-05-20T02:00:42.655Z,100050.98
2019-05-20T02:05:48.142Z,100058.86
2019-05-20T02:10:56.522Z,100063.24
2019-05-20T02:16:05.230Z,100062.78
2019-05-20T02:21:10.714Z,100058.82
2019-05-20T02:26:16.256Z,100039.36
2019-05-20T02:31:21.840Z,100039.14
2019-05-20T02:36:27.327Z,100053.44
2019-05-20T02:41:32.791Z,100063.63
2019-05-20T02:46:38.193Z,100059.53
2019-05-20T02:51:43.655Z,100049.55
2019-05-20T02:56:49.077Z,100060.30
2019-05-20T03:01:54.563Z,100072.59
2019-05-20T03:07:00.070Z,100078.22
2019-05-20T03:12:05.539Z,100076.42
2019-05-20T03:17:10.964Z,100077.32
2019-05-20T03:22:16.400Z,100083.19
2019-05-20T03:27:21.879Z,100084.22
2019-05-20T03:32:27.313Z,100087.14
2019-05-20T03:37:32.827Z,100079.53
2019-05-20T03:42:38.277Z,100081.27
2019-05-20T03:47:43.848Z,100083.10
2019-05-20T03:52:49.319Z,100084.52
2019-05-20T03:57:54.768Z,100088.95
2019-05-20T04:03:00.220Z,100089.05
2019-05-20T04:08:05.691Z,100086.94
2019-05-20T04:13:11.151Z,100084.88
2019-05-20T04:18:16.656Z,100103.40
2019-05-20T04:23:22.080Z,100106.95
2019-05-20T04:28:27.524Z,100114.73
2019-05-20T04:33:32.958Z,100111.61
2019-05-20T04:38:38.446Z,100109.16
2019-05-20T04:43:43.886Z,100104.16
2019-05-20T04:48:49.341Z,100103.94
2019-05-20T04:53:56.757Z,100113.30
2019-05-20T04:59:02.483Z,100119.56
2019-05-20T05:04:08.025Z,100119.41
2019-05-20T05:09:15.581Z,100125.39
2019-05-20T05:14:20.662Z,100120.11
2019-05-20T05:19:26.204Z,100102.84
2019-05-20T05:24:31.663Z,100105.70
2019-05-20T05:29:37.129Z,100111.16
2019-05-20T05:34:42.730Z,100117.19
2019-05-20T05:39:48.373Z,100119.27
2019-05-20T05:44:54.078Z,100124.11
2019-05-20T05:50:00.013Z,100123.33
2019-05-20T05:55:05.476Z,100113.22
2019-05-20T06:00:10.911Z,100116.02
2019-05-20T06:05:16.420Z,100111.23
2019-05-20T06:10:22.024Z,100127.67
2019-05-20T06:15:27.601Z,100133.92
2019-05-20T06:20:33.073Z,100135.42
2019-05-20T06:25:38.716Z,100139.05
2019-05-20T06:30:45.675Z,100150.67
2019-05-20T06:35:51.101Z,100153.30
2019-05-20T06:40:56.620Z,100151.59
2019-05-20T06:46:02.136Z,100150.00
2019-05-20T06:51:07.687Z,100151.55
2019-05-20T06:56:13.166Z,100166.75
2019-05-20T07:01:18.585Z,100167.31
2019-05-20T07:06:24.052Z,100170.42
2019-05-20T07:11:29.492Z,100174.23
2019-05-20T07:16:35.114Z,100157.69
2019-05-20T07:21:40.619Z,100169.75
2019-05-20T07:26:46.171Z,100178.02
2019-05-20T07:31:51.686Z,100177.05
2019-05-20T07:37:03.054Z,100176.28
2019-05-20T07:42:04.314Z,100172.41
2019-05-20T07:47:11.101Z,100169.60
2019-05-20T07:52:16.921Z,100162.41
2019-05-20T07:57:22.662Z,100172.95
2019-05-20T08:02:28.822Z,100180.88
2019-05-20T08:07:50.565Z,100186.80
2019-05-20T08:12:41.545Z,100180.11
2019-05-20T08:17:46.965Z,100181.70
2019-05-20T08:22:52.391Z,100187.90
2019-05-20T08:27:57.931Z,100186.50
2019-05-20T08:33:03.497Z,100187.80
2019-05-20T08:38:08.990Z,100188.73
2019-05-20T08:43:14.469Z,100200.88
2019-05-20T08:48:20.053Z,100198.98
2019-05-20T08:53:25.567Z,100201.20
2019-05-20T08:58:31.088Z,100212.33
2019-05-20T09:03:36.565Z,100221.09
2019-05-20T09:08:42.010Z,100222.69
2019-05-20T09:13:47.567Z,100217.44
2019-05-20T09:18:53.130Z,100220.83
2019-05-20T09:23:58.559Z,100212.61
2019-05-20T09:29:04.024Z,100204.80
2019-05-20T09:34:09.551Z,100209.63
2019-05-20T09:39:15.086Z,100212.67
2019-05-20T09:44:20.543Z,100213.86
2019-05-20T09:49:26.207Z,100215.77
2019-05-20T09:54:31.781Z,100214.44
2019-05-20T09:59:43.256Z,100218.45
2019-05-20T10:04:44.659Z,100223.84
2019-05-20T10:09:50.109Z,100215.73
2019-05-20T10:14:55.634Z,100225.62
2019-05-20T10:20:01.386Z,100224.30
2019-05-20T10:25:07.101Z,100228.41
2019-05-20T10:30:12.710Z,100234.31
2019-05-20T10:35:18.728Z,100235.59
2019-05-20T10:40:24.259Z,100235.19
2019-05-20T10:45:29.884Z,100240.43
2019-05-20T10:50:35.394Z,100239.92
2019-05-20T10:55:41.724Z,100233.01
2019-05-20T11:01:01.665Z,100243.50
2019-05-20T11:05:54.463Z,100245.20
2019-05-20T11:10:59.981Z,100261.14
2019-05-20T11:16:05.420Z,100261.02
2019-05-20T11:21:10.898Z,100260.50
2019-05-20T11:26:16.466Z,100263.67
2019-05-20T11:31:22.119Z,100262.11
2019-05-20T11:36:27.569Z,100264.64
2019-05-20T11:41:52.880Z,100266.39
2019-05-20T11:46:40.266Z,100264.28
2019-05-20T11:51:45.679Z,100265.19
2019-05-20T11:56:51.284Z,100263.27
2019-05-20T12:01:57.195Z,100267.25
2019-05-20T12:07:02.861Z,100264.75
2019-05-20T12:12:08.358Z,100269.33
2019-05-20T12:17:13.833Z,100271.88
2019-05-20T12:22:19.367Z,100266.31
2019-05-20T12:27:24.825Z,100269.84
2019-05-20T12:32:30.390Z,100270.20
2019-05-20T12:37:36.137Z,100269.96
2019-05-20T12:42:41.626Z,100273.07
2019-05-20T12:47:47.133Z,100273.62
2019-05-20T12:52:52.574Z,100272.02
2019-05-20T12:57:58.058Z,100261.56
2019-05-20T13:03:03.506Z,100261.12
2019-05-20T13:08:09.147Z,100258.91
2019-05-20T13:13:14.773Z,100264.50
2019-05-20T13:18:21.244Z,100260.23
2019-05-20T13:23:26.784Z,100255.14
2019-05-20T13:28:32.587Z,100253.78
2019-05-20T13:33:38.341Z,100253.52
2019-05-20T13:38:43.841Z,100250.59
2019-05-20T13:43:49.330Z,100250.70
2019-05-20T13:48:54.815Z,100253.38
2019-05-20T13:54:00.372Z,100253.30
2019-05-20T13:59:05.889Z,100252.48
2019-05-20T14:04:11.588Z,100255.77
2019-05-20T14:09:17.023Z,100252.70
2019-05-20T14:14:22.529Z,100250.48
2019-05-20T14:19:28.033Z,100256.12
2019-05-20T14:24:33.520Z,100249.41
2019-05-20T14:29:39.013Z,100244.56
2019-05-20T14:34:44.546Z,100244.21
2019-05-20T14:39:50.129Z,100249.18
2019-05-20T14:44:55.759Z,100248.54
2019-05-20T14:50:01.179Z,100242.90
2019-05-20T14:55:06.873Z,100246.67
2019-05-20T15:00:12.299Z,100261.63
2019-05-20T15:05:17.718Z,100251.11
2019-05-20T15:10:23.165Z,100254.05
2019-05-20T15:15:28.669Z,100255.51
2019-05-20T15:20:34.102Z,100262.44
2019-05-20T15:25:39.584Z,100260.70
2019-05-20T15:30:45.008Z,100256.90
2019-05-20T15:35:50.413Z,100259.30
2019-05-20T15:40:55.865Z,100256.44
2019-05-20T15:46:01.319Z,100262.73
2019-05-20T15:51:06.850Z,100259.91
2019-05-20T15:56:12.297Z,100252.77
2019-05-20T16:01:17.830Z,100249.20
2019-05-20T16:06:23.308Z,100257.41
2019-05-20T16:11:28.910Z,100253.40
2019-05-20T16:16:34.446Z,100251.37
2019-05-20T16:21:40.230Z,100252.55
2019-05-20T16:26:45.759Z,100252.75
2019-05-20T16:31:51.495Z,100248.68
2019-05-20T16:36:57.234Z,100257.44
2019-05-20T16:42:02.759Z,100262.81
2019-05-20T16:47:08.265Z,100266.27
2019-05-20T16:52:14.144Z,100265.20
2019-05-20T16:57:19.808Z,100269.10
2019-05-20T17:02:25.342Z,100263.37
2019-05-20T17:07:31.695Z,100257.27
2019-05-20T17:12:37.881Z,100247.91
2019-05-20T17:17:43.617Z,100261.98
2019-05-20T17:22:50.225Z,100271.13
2019-05-20T17:27:56.743Z,100281.40
2019-05-20T17:33:02.244Z,100276.94
2019-05-20T17:38:07.740Z,100277.46
2019-05-20T17:43:13.189Z,100266.50
2019-05-20T17:48:18.797Z,100285.12
2019-05-20T17:53:24.422Z,100277.00
2019-05-20T17:58:30.237Z,100281.00
2019-05-20T18:03:35.881Z,100289.45
2019-05-20T18:08:44.588Z,100295.53
2019-05-20T18:13:50.249Z,100311.59
2019-05-20T18:18:55.894Z,100317.70
2019-05-20T18:24:01.648Z,100315.72
2019-05-20T18:29:07.278Z,100324.09
2019-05-20T18:34:12.960Z,100325.59
2019-05-20T18:39:18.535Z,100335.20
2019-05-20T18:44:24.231Z,100334.70
2019-05-20T18:49:29.956Z,100330.62
2019-05-20T18:54:35.516Z,100328.23
2019-05-20T18:59:41.188Z,100326.66
2019-05-20T19:04:46.647Z,100319.41
2019-05-20T19:09:52.257Z,100318.97
2019-05-20T19:14:57.862Z,100324.47
2019-05-20T19:20:03.639Z,100327.63
2019-05-20T19:25:09.118Z,100323.31
2019-05-20T19:30:14.681Z,100325.78
2019-05-20T19:35:20.329Z,100326.38
2019-05-20T19:40:25.803Z,100329.90
2019-05-20T19:45:31.328Z,100339.34
2019-05-20T19:50:36.889Z,100342.17
2019-05-20T19:55:42.426Z,100345.26
2019-05-20T20:00:47.921Z,100343.97
2019-05-20T20:05:53.356Z,100338.73
2019-05-20T20:10:58.800Z,100345.16
2019-05-20T20:16:04.330Z,100343.91
2019-05-20T20:21:10.123Z,100351.12
2019-05-20T20:26:15.643Z,100354.40
2019-05-20T20:31:21.072Z,100360.89
2019-05-20T20:36:26.492Z,100361.06
2019-05-20T20:41:31.965Z,100359.40
2019-05-20T20:46:40.388Z,100356.09
2019-05-20T20:51:44.600Z,100351.34
2019-05-20T20:56:50.132Z,100352.48
2019-05-20T21:01:59.140Z,100364.91
2019-05-20T21:07:02.943Z,100370.73
2019-05-20T21:12:08.472Z,100372.73
2019-05-20T21:17:13.908Z,100378.57
2019-05-20T21:22:19.381Z,100376.24
2019-05-20T21:27:24.855Z,100372.86
2019-05-20T21:32:30.375Z,100382.55
2019-05-20T21:37:36.039Z,100381.83
2019-05-20T21:42:41.492Z,100375.34
2019-05-20T21:47:46.975Z,100371.36
2019-05-20T21:52:52.476Z,100369.56
2019-05-20T21:57:58.004Z,100368.93
2019-05-20T22:03:03.460Z,100367.03
2019-05-20T22:08:10.664Z,100377.28
2019-05-20T22:13:16.132Z,100369.30
2019-05-20T22:18:21.632Z,100369.95
2019-05-20T22:23:41.016Z,100369.02
2019-05-20T22:28:46.867Z,100365.92
2019-05-20T22:33:52.383Z,100361.92
2019-05-20T22:38:57.828Z,100357.20
2019-05-20T22:44:03.334Z,100352.13
2019-05-20T22:49:08.918Z,100354.11
2019-05-20T22:54:14.496Z,100356.31
2019-05-20T22:59:20.132Z,100362.30
2019-05-20T23:04:42.311Z,100364.14
2019-05-20T23:09:47.734Z,100364.11
2019-05-20T23:14:53.260Z,100368.28
2019-05-20T23:19:58.702Z,100375.66
2019-05-20T23:25:04.252Z,100382.58
2019-05-20T23:30:09.720Z,100381.25
2019-05-20T23:35:15.150Z,100384.06
2019-05-20T23:40:20.603Z,100394.48
2019-05-20T23:45:26.009Z,100388.72
2019-05-20T23:50:31.514Z,100401.55
2019-05-20T23:55:36.949Z,100397.38
